createdAt,value
2022-09-24T00:01:41.145Z,100093.44
2022-09-24T00:06:47.282Z,100089.06
2022-09-24T00:09:19.502Z,100096.91
2022-09-24T00:11:47.039Z,100095.97
2022-09-24T00:14:14.536Z,100096.78
2022-09-24T00:16:43.740Z,100099.28
2022-09-24T00:19:13.292Z,100094.88
2022-09-24T00:21:41.589Z,100098.38
2022-09-24T00:24:36.999Z,100094.00
2022-09-24T00:27:06.413Z,100088.72
2022-09-24T00:29:35.374Z,100089.50
2022-09-24T00:32:05.008Z,100088.72
2022-09-24T00:34:32.612Z,100087.88
2022-09-24T00:37:00.050Z,100078.16
2022-09-24T00:39:27.590Z,100069.25
2022-09-24T00:41:55.697Z,100070.94
2022-09-24T00:44:45.733Z,100077.06
2022-09-24T00:47:39.545Z,100063.84
2022-09-24T00:50:31.233Z,100068.22
2022-09-24T00:53:05.998Z,100055.91
2022-09-24T00:55:36.463Z,100056.78
2022-09-24T00:58:07.266Z,100058.56
2022-09-24T01:00:39.453Z,100043.56
2022-09-24T01:03:23.161Z,100030.38
2022-09-24T01:05:50.989Z,100026.84
2022-09-24T01:08:21.088Z,100030.22
2022-09-24T01:11:43.358Z,100031.94
2022-09-24T01:15:00.193Z,100031.81
2022-09-24T01:17:54.139Z,100035.47
2022-09-24T01:20:55.033Z,100032.81
2022-09-24T01:24:18.117Z,100035.31
2022-09-24T01:27:05.425Z,100044.25
2022-09-24T01:30:07.287Z,100037.09
2022-09-24T01:32:49.522Z,100035.31
2022-09-24T01:35:30.329Z,100040.56
2022-09-24T01:38:08.701Z,100034.44
2022-09-24T01:40:39.640Z,100037.09
2022-09-24T01:43:10.400Z,100031.81
2022-09-24T01:45:40.457Z,100038.88
2022-09-24T01:48:08.313Z,100031.03
2022-09-24T01:51:22.892Z,100042.47
2022-09-24T01:54:05.108Z,100038.88
2022-09-24T01:57:25.754Z,100042.28
2022-09-24T02:00:12.514Z,100029.03
2022-09-24T02:03:08.706Z,100039.56
2022-09-24T02:05:50.427Z,100033.38
2022-09-24T02:08:41.943Z,100022.84
2022-09-24T02:11:18.577Z,100008.84
2022-09-24T02:14:07.800Z,100000.88
2022-09-24T02:16:45.409Z,99991.91
2022-09-24T02:19:22.312Z,99983.97
2022-09-24T02:21:51.212Z,99968.97
2022-09-24T02:24:33.738Z,99970.78
2022-09-24T02:27:01.281Z,99969.84
2022-09-24T02:29:28.622Z,99976.03
2022-09-24T02:31:57.990Z,99970.69
2022-09-24T02:34:40.292Z,99967.19
2022-09-24T02:37:12.283Z,99966.34
2022-09-24T02:39:40.122Z,99953.94
2022-09-24T02:42:10.942Z,99961.00
2022-09-24T02:44:38.515Z,99959.19
2022-09-24T02:47:07.063Z,99962.78
2022-09-24T02:49:34.453Z,99955.81
2022-09-24T02:52:02.573Z,99963.69
2022-09-24T02:54:29.813Z,99963.66
2022-09-24T02:56:58.049Z,99962.78
2022-09-24T02:59:25.190Z,99957.50
2022-09-24T03:01:52.567Z,99957.56
2022-09-24T03:04:19.992Z,99957.50
2022-09-24T03:06:47.334Z,99958.34
2022-09-24T03:09:14.881Z,99957.44
2022-09-24T03:11:42.372Z,99952.22
2022-09-24T03:14:09.751Z,99967.28
2022-09-24T03:16:37.253Z,99964.66
2022-09-24T03:19:06.198Z,99963.81
2022-09-24T03:21:34.046Z,99954.09
2022-09-24T03:24:01.690Z,99957.44
2022-09-24T03:26:29.766Z,99946.72
2022-09-24T03:28:56.978Z,99950.94
2022-09-24T03:31:24.441Z,99949.13
2022-09-24T03:33:51.920Z,99947.31
2022-09-24T03:36:28.459Z,99946.31
2022-09-24T03:38:57.750Z,99949.78
2022-09-24T03:41:27.628Z,99949.88
2022-09-24T03:43:56.169Z,99942.03
2022-09-24T03:46:30.183Z,99937.59
2022-09-24T03:49:00.049Z,99939.31
2022-09-24T03:51:27.261Z,99938.44
2022-09-24T03:53:54.537Z,99941.09
2022-09-24T03:56:21.856Z,99932.31
2022-09-24T03:58:49.200Z,99927.03
2022-09-24T04:01:21.275Z,99925.25
2022-09-24T04:03:50.211Z,99930.47
2022-09-24T04:06:22.002Z,99926.16
2022-09-24T04:08:52.260Z,99927.94
2022-09-24T04:11:19.981Z,99930.53
2022-09-24T04:13:47.306Z,99934.94
2022-09-24T04:16:14.618Z,99933.22
2022-09-24T04:18:41.829Z,99935.91
2022-09-24T04:21:09.518Z,99932.31
2022-09-24T04:23:37.035Z,99924.28
2022-09-24T04:26:04.350Z,99923.38
2022-09-24T04:28:32.025Z,99929.41
2022-09-24T04:30:59.540Z,99920.59
2022-09-24T04:33:27.069Z,99921.44
2022-09-24T04:35:54.238Z,99922.19
2022-09-24T04:38:21.586Z,99917.78
2022-09-24T04:40:49.459Z,99919.47
2022-09-24T04:43:18.951Z,99930.03
2022-09-24T04:45:46.534Z,99922.88
2022-09-24T04:48:14.208Z,99925.47
2022-09-24T04:50:45.723Z,99926.34
2022-09-24T04:53:14.683Z,99926.34
2022-09-24T04:55:42.223Z,99909.69
2022-09-24T04:58:10.142Z,99918.34
2022-09-24T05:00:37.686Z,99924.50
2022-09-24T05:03:05.257Z,99926.25
2022-09-24T05:05:34.863Z,99921.94
2022-09-24T05:08:03.003Z,99921.09
2022-09-24T05:10:34.511Z,99918.41
2022-09-24T05:13:02.258Z,99921.09
2022-09-24T05:15:29.942Z,99921.13
2022-09-24T05:17:57.884Z,99922.03
2022-09-24T05:20:25.498Z,99919.47
2022-09-24T05:22:52.671Z,99931.72
2022-09-24T05:25:23.149Z,99928.25
2022-09-24T05:27:54.983Z,99930.88
2022-09-24T05:30:25.533Z,99933.53
2022-09-24T05:32:52.986Z,99929.13
2022-09-24T05:35:22.946Z,99938.81
2022-09-24T05:37:53.182Z,99936.13
2022-09-24T05:40:47.862Z,99936.91
2022-09-24T05:43:16.979Z,99933.34
2022-09-24T05:45:48.991Z,99939.44
2022-09-24T05:48:17.166Z,99950.84
2022-09-24T05:50:44.325Z,99951.81
2022-09-24T05:53:11.555Z,99950.91
2022-09-24T05:55:39.508Z,99953.59
2022-09-24T05:58:10.410Z,99954.44
2022-09-24T06:00:38.234Z,99948.25
2022-09-24T06:03:17.217Z,99952.72
2022-09-24T06:05:48.643Z,99953.63
2022-09-24T06:08:19.228Z,99956.31
2022-09-24T06:10:48.018Z,99951.97
2022-09-24T06:13:19.449Z,99960.69
2022-09-24T06:15:46.973Z,99968.53
2022-09-24T06:18:14.268Z,99962.41
2022-09-24T06:20:41.500Z,99970.25
2022-09-24T06:23:08.749Z,99976.38
2022-09-24T06:25:35.969Z,99985.19
2022-09-24T06:28:05.455Z,99984.28
2022-09-24T06:30:39.302Z,99988.72
2022-09-24T06:33:11.728Z,99991.34
2022-09-24T06:35:43.128Z,99999.22
2022-09-24T06:38:17.130Z,99995.72
2022-09-24T06:40:47.562Z,99991.34
2022-09-24T06:43:15.321Z,99987.94
2022-09-24T06:45:43.057Z,99996.81
2022-09-24T06:48:14.286Z,99995.91
2022-09-24T06:50:45.009Z,100004.69
2022-09-24T06:53:13.034Z,100005.56
2022-09-24T06:55:41.051Z,100003.88
2022-09-24T06:58:16.313Z,99996.91
2022-09-24T07:00:53.531Z,99999.59
2022-09-24T07:03:22.007Z,99990.81
2022-09-24T07:05:49.382Z,99996.22
2022-09-24T07:08:17.588Z,99999.75
2022-09-24T07:10:49.047Z,99998.94
2022-09-24T07:13:17.059Z,99997.34
2022-09-24T07:15:45.544Z,100008.69
2022-09-24T07:18:13.258Z,100007.81
2022-09-24T07:20:40.961Z,100011.28
2022-09-24T07:23:11.445Z,100006.81
2022-09-24T07:25:39.075Z,100022.88
2022-09-24T07:28:13.227Z,100017.72
2022-09-24T07:30:40.564Z,100015.94
2022-09-24T07:33:08.301Z,100022.00
2022-09-24T07:35:39.130Z,100019.38
2022-09-24T07:38:14.401Z,100024.69
2022-09-24T07:40:42.371Z,100020.50
2022-09-24T07:43:12.377Z,100016.22
2022-09-24T07:45:39.987Z,100018.13
2022-09-24T07:48:08.099Z,100019.03
2022-09-24T07:50:40.413Z,100027.72
2022-09-24T07:53:10.342Z,100031.22
2022-09-24T07:55:40.437Z,100031.13
2022-09-24T07:58:15.892Z,100031.91
2022-09-24T08:00:43.184Z,100028.28
2022-09-24T08:03:10.729Z,100029.91
2022-09-24T08:05:45.346Z,100033.25
2022-09-24T08:08:13.660Z,100036.50
2022-09-24T08:10:42.075Z,100039.06
2022-09-24T08:13:09.352Z,100037.19
2022-09-24T08:15:36.624Z,100043.00
2022-09-24T08:18:05.521Z,100044.50
2022-09-24T08:20:33.773Z,100049.09
2022-09-24T08:23:03.559Z,100046.31
2022-09-24T08:25:31.778Z,100047.19
2022-09-24T08:28:05.184Z,100048.28
2022-09-24T08:30:34.260Z,100053.66
2022-09-24T08:33:01.722Z,100051.16
2022-09-24T08:35:28.871Z,100051.97
2022-09-24T08:37:56.361Z,100046.91
2022-09-24T08:40:32.837Z,100054.75
2022-09-24T08:43:41.991Z,100060.97
2022-09-24T08:46:44.801Z,100063.13
2022-09-24T08:49:19.362Z,100064.28
2022-09-24T08:52:10.064Z,100060.56
2022-09-24T08:54:38.895Z,100066.84
2022-09-24T08:57:14.699Z,100062.34
2022-09-24T08:59:53.305Z,100061.38
2022-09-24T09:02:51.373Z,100052.34
2022-09-24T09:05:57.237Z,100062.56
2022-09-24T09:09:01.830Z,100060.88
2022-09-24T09:11:34.302Z,100059.09
2022-09-24T09:14:46.128Z,100072.91
2022-09-24T09:17:58.970Z,100073.94
2022-09-24T09:20:39.651Z,100075.59
2022-09-24T09:23:19.065Z,100073.72
2022-09-24T09:25:57.435Z,100072.91
2022-09-24T09:28:27.740Z,100079.72
2022-09-24T09:31:22.397Z,100077.09
2022-09-24T09:34:21.048Z,100077.09
2022-09-24T09:37:56.373Z,100079.78
2022-09-24T09:40:36.400Z,100084.50
2022-09-24T09:43:10.891Z,100089.72
2022-09-24T09:46:11.927Z,100082.47
2022-09-24T09:48:49.397Z,100082.88
2022-09-24T09:51:24.934Z,100080.53
2022-09-24T09:54:02.944Z,100076.44
2022-09-24T09:56:44.837Z,100080.09
2022-09-24T09:59:11.921Z,100077.75
2022-09-24T10:01:43.728Z,100078.72
2022-09-24T10:04:47.808Z,100084.72
2022-09-24T10:07:17.982Z,100078.94
2022-09-24T10:09:46.741Z,100076.66
2022-09-24T10:12:24.281Z,100075.06
2022-09-24T10:15:04.573Z,100069.00
2022-09-24T10:17:39.718Z,100073.19
2022-09-24T10:20:31.464Z,100074.84
2022-09-24T10:23:06.877Z,100073.28
2022-09-24T10:25:37.090Z,100073.53
2022-09-24T10:28:28.307Z,100069.28
2022-09-24T10:31:22.930Z,100060.75
2022-09-24T10:33:56.075Z,100056.06
2022-09-24T10:36:34.919Z,100046.59
2022-09-24T10:39:23.602Z,100051.47
2022-09-24T10:41:56.339Z,100060.53
2022-09-24T10:44:34.330Z,100054.63
2022-09-24T10:47:26.628Z,100062.34
2022-09-24T10:50:48.913Z,100054.97
2022-09-24T10:53:47.182Z,100060.00
2022-09-24T10:56:23.839Z,100054.75
2022-09-24T10:59:20.254Z,100056.16
2022-09-24T11:02:26.468Z,100046.16
2022-09-24T11:05:05.353Z,100049.72
2022-09-24T11:08:06.624Z,100045.38
2022-09-24T11:10:59.113Z,100045.47
2022-09-24T11:14:02.836Z,100036.78
2022-09-24T11:17:02.162Z,100044.44
2022-09-24T11:19:50.692Z,100036.31
2022-09-24T11:23:04.928Z,100040.38
2022-09-24T11:25:57.160Z,100030.78
2022-09-24T11:28:41.741Z,100028.31
2022-09-24T11:31:41.384Z,100020.19
2022-09-24T11:35:18.430Z,100016.13
2022-09-24T11:38:10.361Z,100012.81
2022-09-24T11:41:23.110Z,100004.81
2022-09-24T11:44:25.663Z,100010.28
2022-09-24T11:48:15.201Z,99995.63
2022-09-24T11:51:22.925Z,99995.28
2022-09-24T11:54:22.016Z,99993.16
2022-09-24T11:56:58.544Z,99985.44
2022-09-24T11:59:58.940Z,99977.34
2022-09-24T12:03:04.152Z,99974.81
2022-09-24T12:05:52.386Z,99972.13
2022-09-24T12:08:39.813Z,99972.44
2022-09-24T12:11:30.980Z,99971.53
2022-09-24T12:14:22.830Z,99966.22
2022-09-24T12:17:05.517Z,99969.03
2022-09-24T12:19:50.662Z,99963.06
2022-09-24T12:22:21.571Z,99967.59
2022-09-24T12:24:54.076Z,99961.53
2022-09-24T12:27:30.298Z,99956.41
2022-09-24T12:30:50.547Z,99961.97
2022-09-24T12:34:19.205Z,99958.81
2022-09-24T12:37:02.711Z,99955.94
2022-09-24T12:40:05.231Z,99960.34
2022-09-24T12:42:43.787Z,99954.53
2022-09-24T12:45:19.712Z,99957.47
2022-09-24T12:47:56.252Z,99944.50
2022-09-24T12:50:34.293Z,99940.31
2022-09-24T12:53:02.036Z,99937.75
2022-09-24T12:55:34.587Z,99929.84
2022-09-24T12:58:06.602Z,99931.59
2022-09-24T13:00:41.517Z,99928.63
2022-09-24T13:03:46.011Z,99926.41
2022-09-24T13:06:37.350Z,99927.94
2022-09-24T13:09:39.889Z,99930.78
2022-09-24T13:12:24.227Z,99931.28
2022-09-24T13:15:28.439Z,99931.19
2022-09-24T13:18:11.040Z,99928.31
2022-09-24T13:20:49.201Z,99919.25
2022-09-24T13:23:17.207Z,99927.03
2022-09-24T13:25:56.044Z,99935.47
2022-09-24T13:28:38.299Z,99937.84
2022-09-24T13:31:33.499Z,99928.00
2022-09-24T13:34:10.368Z,99919.47
2022-09-24T13:37:03.196Z,99921.25
2022-09-24T13:39:50.986Z,99925.53
2022-09-24T13:42:49.447Z,99919.56
2022-09-24T13:45:23.193Z,99922.34
2022-09-24T13:48:01.243Z,99921.47
2022-09-24T13:50:48.695Z,99922.75
2022-09-24T13:53:40.406Z,99917.63
2022-09-24T13:56:16.782Z,99914.16
2022-09-24T13:58:44.937Z,99910.56
2022-09-24T14:01:27.070Z,99905.16
2022-09-24T14:04:17.697Z,99900.06
2022-09-24T14:06:57.383Z,99896.84
2022-09-24T14:09:36.426Z,99893.53
2022-09-24T14:12:17.862Z,99890.88
2022-09-24T14:14:53.278Z,99893.59
2022-09-24T14:17:20.539Z,99889.94
2022-09-24T14:19:51.056Z,99889.69
2022-09-24T14:22:37.223Z,99894.72
2022-09-24T14:25:16.568Z,99894.66
2022-09-24T14:27:50.938Z,99884.06
2022-09-24T14:30:23.929Z,99883.91
2022-09-24T14:33:05.985Z,99881.09
2022-09-24T14:35:54.123Z,99880.28
2022-09-24T14:38:36.551Z,99876.03
2022-09-24T14:41:17.917Z,99878.59
2022-09-24T14:44:12.460Z,99873.81
2022-09-24T14:46:50.154Z,99870.47
2022-09-24T14:49:23.454Z,99871.53
2022-09-24T14:52:04.148Z,99871.31
2022-09-24T14:54:40.546Z,99868.00
2022-09-24T14:57:19.887Z,99867.44
2022-09-24T14:59:47.538Z,99871.69
2022-09-24T15:02:33.519Z,99872.47
2022-09-24T15:05:06.773Z,99874.19
2022-09-24T15:07:35.536Z,99877.75
2022-09-24T15:10:06.203Z,99878.47
2022-09-24T15:12:40.664Z,99878.16
2022-09-24T15:15:30.598Z,99879.78
2022-09-24T15:17:58.162Z,99877.88
2022-09-24T15:20:25.434Z,99876.00
2022-09-24T15:22:52.619Z,99880.19
2022-09-24T15:25:19.948Z,99870.41
2022-09-24T15:27:49.332Z,99873.84
2022-09-24T15:30:21.880Z,99867.69
2022-09-24T15:32:50.015Z,99871.97
2022-09-24T15:35:17.497Z,99875.59
2022-09-24T15:37:45.041Z,99869.19
2022-09-24T15:40:22.767Z,99873.53
2022-09-24T15:42:51.511Z,99874.16
2022-09-24T15:45:25.388Z,99871.47
2022-09-24T15:47:54.257Z,99873.63
2022-09-24T15:50:23.733Z,99875.31
2022-09-24T15:52:59.019Z,99876.38
2022-09-24T15:55:26.348Z,99868.44
2022-09-24T15:57:53.889Z,99867.03
2022-09-24T16:00:24.751Z,99879.38
2022-09-24T16:02:56.069Z,99876.56
2022-09-24T16:05:25.185Z,99877.47
2022-09-24T16:07:52.462Z,99872.22
2022-09-24T16:10:19.750Z,99883.38
2022-09-24T16:12:47.067Z,99870.97
2022-09-24T16:15:16.244Z,99875.50
2022-09-24T16:17:43.720Z,99870.22
2022-09-24T16:20:11.049Z,99869.22
2022-09-24T16:22:38.504Z,99870.75
2022-09-24T16:25:06.681Z,99864.53
2022-09-24T16:27:35.265Z,99868.91
2022-09-24T16:30:06.121Z,99859.22
2022-09-24T16:32:33.599Z,99869.00
2022-09-24T16:35:00.889Z,99862.91
2022-09-24T16:37:28.402Z,99857.44
2022-09-24T16:39:56.041Z,99859.09
2022-09-24T16:42:26.157Z,99862.44
2022-09-24T16:44:53.471Z,99857.03
2022-09-24T16:47:21.078Z,99857.94
2022-09-24T16:49:48.472Z,99860.38
2022-09-24T16:52:15.870Z,99864.72
2022-09-24T16:54:43.484Z,99869.91
2022-09-24T16:57:10.664Z,99867.06
2022-09-24T16:59:37.817Z,99859.84
2022-09-24T17:02:05.207Z,99862.59
2022-09-24T17:04:34.366Z,99862.53
2022-09-24T17:07:01.765Z,99858.88
2022-09-24T17:09:47.598Z,99861.63
2022-09-24T17:12:14.862Z,99864.16
2022-09-24T17:14:42.099Z,99868.47
2022-09-24T17:17:09.343Z,99872.91
2022-09-24T17:19:36.513Z,99863.34
2022-09-24T17:22:03.749Z,99857.94
2022-09-24T17:24:31.696Z,99863.16
2022-09-24T17:26:58.938Z,99870.09
2022-09-24T17:29:31.269Z,99869.88
2022-09-24T17:31:59.344Z,99870.84
2022-09-24T17:34:27.444Z,99866.44
2022-09-24T17:36:54.716Z,99869.06
2022-09-24T17:39:21.927Z,99867.44
2022-09-24T17:41:49.276Z,99877.97
2022-09-24T17:44:17.866Z,99877.97
2022-09-24T17:46:45.239Z,99876.97
2022-09-24T17:49:12.644Z,99871.59
2022-09-24T17:51:40.060Z,99874.19
2022-09-24T17:54:18.930Z,99871.69
2022-09-24T17:56:46.239Z,99881.22
2022-09-24T17:59:15.479Z,99877.63
2022-09-24T18:01:45.526Z,99862.44
2022-09-24T18:04:18.808Z,99866.84
2022-09-24T18:06:48.889Z,99869.47
2022-09-24T18:09:18.199Z,99873.88
2022-09-24T18:11:52.394Z,99864.91
2022-09-24T18:14:23.244Z,99862.25
2022-09-24T18:16:51.307Z,99864.78
2022-09-24T18:19:18.928Z,99866.50
2022-09-24T18:21:49.098Z,99870.19
2022-09-24T18:24:16.617Z,99877.28
2022-09-24T18:26:44.191Z,99879.81
2022-09-24T18:29:17.610Z,99872.72
2022-09-24T18:31:45.434Z,99874.44
2022-09-24T18:34:15.600Z,99881.63
2022-09-24T18:36:45.126Z,99880.59
2022-09-24T18:39:21.999Z,99874.44
2022-09-24T18:41:51.342Z,99885.28
2022-09-24T18:44:19.635Z,99888.84
2022-09-24T18:46:47.102Z,99895.13
2022-09-24T18:49:14.338Z,99893.16
2022-09-24T18:51:42.039Z,99893.91
2022-09-24T18:54:14.007Z,99900.13
2022-09-24T18:56:42.743Z,99901.75
2022-09-24T18:59:19.950Z,99901.81
2022-09-24T19:01:48.927Z,99902.72
2022-09-24T19:04:17.113Z,99900.75
2022-09-24T19:06:48.301Z,99900.59
2022-09-24T19:09:17.534Z,99897.19
2022-09-24T19:11:45.467Z,99907.88
2022-09-24T19:14:14.971Z,99904.13
2022-09-24T19:16:42.244Z,99906.50
2022-09-24T19:19:11.241Z,99902.03
2022-09-24T19:21:39.189Z,99904.72
2022-09-24T19:24:07.766Z,99905.47
2022-09-24T19:26:36.633Z,99905.25
2022-09-24T19:29:04.903Z,99902.59
2022-09-24T19:31:43.002Z,99900.75
2022-09-24T19:34:14.122Z,99900.91
2022-09-24T19:36:43.669Z,99905.38
2022-09-24T19:39:17.373Z,99904.34
2022-09-24T19:41:45.356Z,99913.00
2022-09-24T19:44:13.497Z,99907.78
2022-09-24T19:46:41.358Z,99905.03
2022-09-24T19:49:09.024Z,99898.13
2022-09-24T19:51:37.147Z,99897.38
2022-09-24T19:54:08.503Z,99893.97
2022-09-24T19:56:36.580Z,99906.06
2022-09-24T19:59:05.086Z,99905.16
2022-09-24T20:01:34.275Z,99914.00
2022-09-24T20:04:06.698Z,99912.34
2022-09-24T20:06:37.559Z,99903.00
2022-09-24T20:09:05.599Z,99891.81
2022-09-24T20:11:33.411Z,99895.28
2022-09-24T20:14:01.970Z,99896.28
2022-09-24T20:16:33.268Z,99906.66
2022-09-24T20:19:02.926Z,99897.63
2022-09-24T20:21:34.865Z,99900.22
2022-09-24T20:24:04.104Z,99898.44
2022-09-24T20:26:50.887Z,99899.56
2022-09-24T20:29:19.784Z,99897.97
2022-09-24T20:31:51.715Z,99899.66
2022-09-24T20:34:33.258Z,99901.38
2022-09-24T20:37:04.266Z,99890.06
2022-09-24T20:39:32.938Z,99897.09
2022-09-24T20:42:02.374Z,99895.16
2022-09-24T20:44:31.250Z,99902.25
2022-09-24T20:46:59.828Z,99896.13
2022-09-24T20:49:28.035Z,99905.47
2022-09-24T20:51:57.658Z,99906.38
2022-09-24T20:54:28.492Z,99901.72
2022-09-24T20:56:57.026Z,99910.63
2022-09-24T20:59:26.984Z,99905.59
2022-09-24T21:01:54.766Z,99906.44
2022-09-24T21:04:22.996Z,99907.03
2022-09-24T21:06:50.424Z,99906.97
2022-09-24T21:09:17.652Z,99906.84
2022-09-24T21:11:45.015Z,99900.22
2022-09-24T21:14:12.498Z,99909.63
2022-09-24T21:16:40.490Z,99899.31
2022-09-24T21:19:07.955Z,99902.16
2022-09-24T21:21:38.867Z,99908.53
2022-09-24T21:24:11.625Z,99907.84
2022-09-24T21:26:40.221Z,99911.38
2022-09-24T21:29:18.708Z,99912.13
2022-09-24T21:31:47.618Z,99907.69
2022-09-24T21:34:20.549Z,99910.13
2022-09-24T21:36:47.937Z,99911.00
2022-09-24T21:39:20.621Z,99903.81
2022-09-24T21:41:53.128Z,99899.53
2022-09-24T21:44:21.448Z,99898.63
2022-09-24T21:46:52.430Z,99898.34
2022-09-24T21:49:20.532Z,99900.34
2022-09-24T21:51:47.683Z,99889.94
2022-09-24T21:54:17.942Z,99902.06
2022-09-24T21:56:46.486Z,99907.38
2022-09-24T21:59:34.071Z,99900.81
2022-09-24T22:02:03.320Z,99897.00
2022-09-24T22:04:33.032Z,99897.94
2022-09-24T22:07:00.633Z,99900.34
2022-09-24T22:09:28.774Z,99906.63
2022-09-24T22:11:56.173Z,99907.78
2022-09-24T22:14:23.575Z,99904.16
2022-09-24T22:16:51.173Z,99909.19
2022-09-24T22:19:18.867Z,99908.06
2022-09-24T22:21:46.724Z,99898.25
2022-09-24T22:24:15.008Z,99900.31
2022-09-24T22:26:42.198Z,99902.25
2022-09-24T22:29:09.507Z,99911.09
2022-09-24T22:31:36.680Z,99907.44
2022-09-24T22:34:22.499Z,99907.38
2022-09-24T22:36:49.652Z,99910.88
2022-09-24T22:39:16.822Z,99904.88
2022-09-24T22:41:44.020Z,99899.44
2022-09-24T22:44:12.405Z,99900.31
2022-09-24T22:46:41.287Z,99881.16
2022-09-24T22:49:10.713Z,99889.16
2022-09-24T22:51:39.215Z,99879.38
2022-09-24T22:54:08.732Z,99871.56
2022-09-24T22:56:36.922Z,99878.44
2022-09-24T22:59:05.071Z,99874.19
2022-09-24T23:01:42.635Z,99874.19
2022-09-24T23:04:14.771Z,99871.56
2022-09-24T23:06:43.575Z,99872.56
2022-09-24T23:09:11.732Z,99868.28
2022-09-24T23:11:39.831Z,99869.19
2022-09-24T23:14:16.916Z,99871.88
2022-09-24T23:16:44.564Z,99863.78
2022-09-24T23:19:19.539Z,99869.88
2022-09-24T23:21:47.174Z,99861.22
2022-09-24T23:24:20.085Z,99864.69
2022-09-24T23:26:48.435Z,99861.31
2022-09-24T23:29:16.012Z,99858.63
2022-09-24T23:31:43.589Z,99860.94
2022-09-24T23:34:13.088Z,99856.63
2022-09-24T23:36:40.724Z,99850.59
2022-09-24T23:39:07.887Z,99853.31
2022-09-24T23:41:35.084Z,99850.97
2022-09-24T23:44:02.375Z,99857.16
2022-09-24T23:46:29.933Z,99852.63
2022-09-24T23:48:57.181Z,99850.84
2022-09-24T23:51:24.821Z,99849.13
2022-09-24T23:53:52.682Z,99843.94
2022-09-24T23:56:20.901Z,99836.00
2022-09-24T23:58:48.071Z,99838.63
